sensor_id;sensor_type;location;lat;lon;timestamp;pressure;altitude;pressure_sealevel;temperature;humidity
71791;BME280;59638;52.126;5.434;2023-04-01T00:02:21;99194.97;;;9.22;100.00
71791;BME280;59638;52.126;5.434;2023-04-01T00:04:48;99198.59;;;9.21;100.00
71791;BME280;59638;52.126;5.434;2023-04-01T00:07:14;99194.97;;;9.22;100.00
71791;BME280;59638;52.126;5.434;2023-04-01T00:09:40;99196.63;;;9.23;100.00
71791;BME280;59638;52.126;5.434;2023-04-01T00:12:07;99193.16;;;9.22;100.00
71791;BME280;59638;52.126;5.434;2023-04-01T00:14:33;99191.34;;;9.23;100.00
71791;BME280;59638;52.126;5.434;2023-04-01T00:17:00;99203.53;;;9.24;100.00
71791;BME280;59638;52.126;5.434;2023-04-01T00:19:29;99195.63;;;9.24;100.00
71791;BME280;59638;52.126;5.434;2023-04-01T00:21:55;99201.88;;;9.23;100.00
71791;BME280;59638;52.126;5.434;2023-04-01T00:24:22;99197.44;;;9.23;100.00
71791;BME280;59638;52.126;5.434;2023-04-01T00:26:48;99209.63;;;9.24;100.00
71791;BME280;59638;52.126;5.434;2023-04-01T00:29:15;99204.19;;;9.26;100.00
71791;BME280;59638;52.126;5.434;2023-04-01T00:31:41;99212.09;;;9.26;100.00
71791;BME280;59638;52.126;5.434;2023-04-01T00:34:08;99208.47;;;9.27;100.00
71791;BME280;59638;52.126;5.434;2023-04-01T00:36:34;99204.38;;;9.24;100.00
71791;BME280;59638;52.126;5.434;2023-04-01T00:39:00;99210.47;;;9.25;100.00
71791;BME280;59638;52.126;5.434;2023-04-01T00:41:27;99203.53;;;9.24;100.00
71791;BME280;59638;52.126;5.434;2023-04-01T00:44:15;99208.78;;;9.24;100.00
71791;BME280;59638;52.126;5.434;2023-04-01T00:46:42;99201.88;;;9.23;100.00
71791;BME280;59638;52.126;5.434;2023-04-01T00:49:09;99211.41;;;9.24;100.00
71791;BME280;59638;52.126;5.434;2023-04-01T00:51:36;99212.41;;;9.23;100.00
71791;BME280;59638;52.126;5.434;2023-04-01T00:54:05;99211.78;;;9.21;100.00
71791;BME280;59638;52.126;5.434;2023-04-01T00:56:34;99216.41;;;9.19;100.00
71791;BME280;59638;52.126;5.434;2023-04-01T00:59:04;99207.81;;;9.17;100.00
71791;BME280;59638;52.126;5.434;2023-04-01T01:01:34;99209.00;;;9.14;100.00
71791;BME280;59638;52.126;5.434;2023-04-01T01:04:01;99210.97;;;9.12;100.00
71791;BME280;59638;52.126;5.434;2023-04-01T01:06:46;99219.69;;;9.13;100.00
71791;BME280;59638;52.126;5.434;2023-04-01T01:09:30;99218.56;;;9.07;100.00
71791;BME280;59638;52.126;5.434;2023-04-01T01:17:50;99226.75;;;9.04;100.00
71791;BME280;59638;52.126;5.434;2023-04-01T01:20:38;99225.31;;;9.02;100.00
71791;BME280;59638;52.126;5.434;2023-04-01T01:28:47;99223.97;;;8.97;100.00
71791;BME280;59638;52.126;5.434;2023-04-01T01:31:25;99223.03;;;8.98;100.00
71791;BME280;59638;52.126;5.434;2023-04-01T01:36:37;99229.59;;;8.94;100.00
71791;BME280;59638;52.126;5.434;2023-04-01T01:39:07;99230.41;;;8.95;100.00
71791;BME280;59638;52.126;5.434;2023-04-01T01:41:36;99226.31;;;8.92;100.00
71791;BME280;59638;52.126;5.434;2023-04-01T01:44:08;99242.41;;;8.89;100.00
71791;BME280;59638;52.126;5.434;2023-04-01T01:46:37;99229.78;;;8.85;100.00
71791;BME280;59638;52.126;5.434;2023-04-01T01:49:07;99244.06;;;8.82;100.00
71791;BME280;59638;52.126;5.434;2023-04-01T01:51:35;99236.53;;;8.79;100.00
71791;BME280;59638;52.126;5.434;2023-04-01T01:54:01;99241.09;;;8.77;100.00
71791;BME280;59638;52.126;5.434;2023-04-01T01:56:29;99241.44;;;8.74;100.00
71791;BME280;59638;52.126;5.434;2023-04-01T01:59:08;99238.31;;;8.70;100.00
71791;BME280;59638;52.126;5.434;2023-04-01T02:01:40;99242.75;;;8.70;100.00
71791;BME280;59638;52.126;5.434;2023-04-01T02:04:09;99243.56;;;8.70;100.00
71791;BME280;59638;52.126;5.434;2023-04-01T02:06:38;99254.28;;;8.69;100.00
71791;BME280;59638;52.126;5.434;2023-04-01T02:09:08;99249.00;;;8.69;100.00
71791;BME280;59638;52.126;5.434;2023-04-01T02:11:49;99248.38;;;8.67;100.00
71791;BME280;59638;52.126;5.434;2023-04-01T02:16:56;99245.06;;;8.65;100.00
71791;BME280;59638;52.126;5.434;2023-04-01T02:19:29;99255.91;;;8.62;100.00
71791;BME280;59638;52.126;5.434;2023-04-01T02:22:00;99251.66;;;8.61;100.00
71791;BME280;59638;52.126;5.434;2023-04-01T02:24:30;99247.38;;;8.60;100.00
71791;BME280;59638;52.126;5.434;2023-04-01T02:26:57;99257.91;;;8.60;100.00
71791;BME280;59638;52.126;5.434;2023-04-01T02:29:24;99256.41;;;8.57;100.00
71791;BME280;59638;52.126;5.434;2023-04-01T02:31:54;99259.84;;;8.58;100.00
71791;BME280;59638;52.126;5.434;2023-04-01T02:34:22;99256.56;;;8.56;100.00
71791;BME280;59638;52.126;5.434;2023-04-01T02:36:50;99257.56;;;8.55;100.00
71791;BME280;59638;52.126;5.434;2023-04-01T02:39:17;99263.81;;;8.54;100.00
71791;BME280;59638;52.126;5.434;2023-04-01T02:41:45;99252.47;;;8.53;100.00
71791;BME280;59638;52.126;5.434;2023-04-01T02:44:14;99258.84;;;8.51;100.00
71791;BME280;59638;52.126;5.434;2023-04-01T02:46:42;99258.03;;;8.50;100.00
71791;BME280;59638;52.126;5.434;2023-04-01T02:49:08;99261.34;;;8.52;100.00
71791;BME280;59638;52.126;5.434;2023-04-01T02:51:35;99267.44;;;8.53;100.00
71791;BME280;59638;52.126;5.434;2023-04-01T02:54:01;99264.13;;;8.51;100.00
71791;BME280;59638;52.126;5.434;2023-04-01T02:56:27;99263.13;;;8.52;100.00
71791;BME280;59638;52.126;5.434;2023-04-01T02:58:54;99270.53;;;8.48;100.00
71791;BME280;59638;52.126;5.434;2023-04-01T03:01:21;99270.53;;;8.48;100.00
71791;BME280;59638;52.126;5.434;2023-04-01T03:03:48;99265.28;;;8.48;100.00
71791;BME280;59638;52.126;5.434;2023-04-01T03:06:16;99276.63;;;8.49;100.00
71791;BME280;59638;52.126;5.434;2023-04-01T03:08:42;99280.22;;;8.48;100.00
71791;BME280;59638;52.126;5.434;2023-04-01T03:11:10;99276.63;;;8.49;100.00
71791;BME280;59638;52.126;5.434;2023-04-01T03:13:36;99280.22;;;8.48;100.00
71791;BME280;59638;52.126;5.434;2023-04-01T03:16:03;99272.34;;;8.48;100.00
71791;BME280;59638;52.126;5.434;2023-04-01T03:18:30;99285.50;;;8.48;100.00
71791;BME280;59638;52.126;5.434;2023-04-01T03:20:56;99283.84;;;8.47;100.00
71791;BME280;59638;52.126;5.434;2023-04-01T03:23:23;99286.31;;;8.48;100.00
71791;BME280;59638;52.126;5.434;2023-04-01T03:25:50;99283.84;;;8.47;100.00
71791;BME280;59638;52.126;5.434;2023-04-01T03:28:17;99286.31;;;8.48;100.00
71791;BME280;59638;52.126;5.434;2023-04-01T03:30:43;99292.22;;;8.50;100.00
71791;BME280;59638;52.126;5.434;2023-04-01T03:33:09;99293.88;;;8.51;100.00
71791;BME280;59638;52.126;5.434;2023-04-01T03:35:36;99300.94;;;8.51;100.00
71791;BME280;59638;52.126;5.434;2023-04-01T03:38:02;99306.06;;;8.52;100.00
71791;BME280;59638;52.126;5.434;2023-04-01T03:40:29;99307.53;;;8.55;100.00
71791;BME280;59638;52.126;5.434;2023-04-01T03:42:55;99302.25;;;8.55;100.00
71791;BME280;59638;52.126;5.434;2023-04-01T03:45:22;99313.44;;;8.57;100.00
71791;BME280;59638;52.126;5.434;2023-04-01T03:47:48;99311.63;;;8.57;100.00
71791;BME280;59638;52.126;5.434;2023-04-01T03:50:15;99315.06;;;8.58;100.00
71791;BME280;59638;52.126;5.434;2023-04-01T03:52:42;99319.38;;;8.59;100.00
71791;BME280;59638;52.126;5.434;2023-04-01T03:55:08;99319.03;;;8.62;100.00
71791;BME280;59638;52.126;5.434;2023-04-01T03:57:34;99323.31;;;8.63;100.00
71791;BME280;59638;52.126;5.434;2023-04-01T04:00:01;99319.69;;;8.64;100.00
71791;BME280;59638;52.126;5.434;2023-04-01T04:02:28;99323.13;;;8.64;100.00
71791;BME280;59638;52.126;5.434;2023-04-01T04:04:54;99328.25;;;8.66;100.00
71791;BME280;59638;52.126;5.434;2023-04-01T04:07:21;99329.22;;;8.65;100.00
71791;BME280;59638;52.126;5.434;2023-04-01T04:09:47;99334.19;;;8.68;100.00
71791;BME280;59638;52.126;5.434;2023-04-01T04:12:13;99336.63;;;8.69;100.00
71791;BME280;59638;52.126;5.434;2023-04-01T04:14:40;99342.72;;;8.70;100.00
71791;BME280;59638;52.126;5.434;2023-04-01T04:17:06;99349.63;;;8.71;100.00
71791;BME280;59638;52.126;5.434;2023-04-01T04:19:34;99339.09;;;8.71;100.00
71791;BME280;59638;52.126;5.434;2023-04-01T04:22:00;99351.28;;;8.72;100.00
71791;BME280;59638;52.126;5.434;2023-04-01T04:24:27;99344.06;;;8.74;100.00
71791;BME280;59638;52.126;5.434;2023-04-01T04:26:54;99350.78;;;8.77;100.00
71791;BME280;59638;52.126;5.434;2023-04-01T04:29:20;99354.22;;;8.77;100.00
71791;BME280;59638;52.126;5.434;2023-04-01T04:31:48;99356.03;;;8.77;100.00
71791;BME280;59638;52.126;5.434;2023-04-01T04:34:15;99356.88;;;8.77;100.00
71791;BME280;59638;52.126;5.434;2023-04-01T04:36:41;99362.81;;;8.79;100.00
71791;BME280;59638;52.126;5.434;2023-04-01T04:39:08;99360.84;;;8.81;100.00
71791;BME280;59638;52.126;5.434;2023-04-01T04:41:37;99371.34;;;8.81;100.00
71791;BME280;59638;52.126;5.434;2023-04-01T04:44:03;99381.53;;;8.84;100.00
71791;BME280;59638;52.126;5.434;2023-04-01T04:46:30;99383.22;;;8.85;100.00
71791;BME280;59638;52.126;5.434;2023-04-01T04:48:57;99386.66;;;8.86;100.00
71791;BME280;59638;52.126;5.434;2023-04-01T04:51:24;99379.41;;;8.88;100.00
71791;BME280;59638;52.126;5.434;2023-04-01T04:53:50;99389.78;;;8.89;100.00
71791;BME280;59638;52.126;5.434;2023-04-01T04:56:22;99392.09;;;8.92;100.00
71791;BME280;59638;52.126;5.434;2023-04-01T04:58:48;99401.63;;;8.93;100.00
71791;BME280;59638;52.126;5.434;2023-04-01T05:01:16;99404.91;;;8.95;100.00
71791;BME280;59638;52.126;5.434;2023-04-01T05:03:43;99409.19;;;8.96;100.00
71791;BME280;59638;52.126;5.434;2023-04-01T05:06:11;99415.97;;;8.99;100.00
71791;BME280;59638;52.126;5.434;2023-04-01T05:08:38;99415.78;;;9.01;100.00
71791;BME280;59638;52.126;5.434;2023-04-01T05:11:07;99418.91;;;9.04;100.00
71791;BME280;59638;52.126;5.434;2023-04-01T05:13:36;99427.47;;;9.06;100.00
71791;BME280;59638;52.126;5.434;2023-04-01T05:16:03;99429.94;;;9.08;100.00
71791;BME280;59638;52.126;5.434;2023-04-01T05:18:29;99429.94;;;9.08;100.00
71791;BME280;59638;52.126;5.434;2023-04-01T05:20:56;99436.84;;;9.09;100.00
71791;BME280;59638;52.126;5.434;2023-04-01T05:23:22;99437.66;;;9.09;100.00
71791;BME280;59638;52.126;5.434;2023-04-01T05:25:49;99444.56;;;9.10;100.00
71791;BME280;59638;52.126;5.434;2023-04-01T05:28:16;99448.03;;;9.11;100.00
71791;BME280;59638;52.126;5.434;2023-04-01T05:30:43;99454.97;;;9.12;100.00
71791;BME280;59638;52.126;5.434;2023-04-01T05:33:10;99454.97;;;9.12;100.00
71791;BME280;59638;52.126;5.434;2023-04-01T05:35:37;99453.16;;;9.12;100.00
71791;BME280;59638;52.126;5.434;2023-04-01T05:38:04;99455.94;;;9.11;100.00
71791;BME280;59638;52.126;5.434;2023-04-01T05:40:30;99468.13;;;9.12;100.00
71791;BME280;59638;52.126;5.434;2023-04-01T05:42:58;99468.94;;;9.12;100.00
71791;BME280;59638;52.126;5.434;2023-04-01T05:45:25;99481.28;;;9.12;100.00
71791;BME280;59638;52.126;5.434;2023-04-01T05:47:51;99481.13;;;9.13;100.00
71791;BME280;59638;52.126;5.434;2023-04-01T05:50:18;99489.84;;;9.14;100.00
71791;BME280;59638;52.126;5.434;2023-04-01T05:52:45;99494.13;;;9.15;100.00
71791;BME280;59638;52.126;5.434;2023-04-01T05:55:11;99494.13;;;9.15;100.00
71791;BME280;59638;52.126;5.434;2023-04-01T05:57:38;99492.13;;;9.17;100.00
71791;BME280;59638;52.126;5.434;2023-04-01T06:00:05;99492.13;;;9.17;100.00
71791;BME280;59638;52.126;5.434;2023-04-01T06:02:31;99498.22;;;9.17;100.00
71791;BME280;59638;52.126;5.434;2023-04-01T06:05:17;99500.72;;;9.19;100.00
71791;BME280;59638;52.126;5.434;2023-04-01T06:07:44;99506.97;;;9.18;100.00
71791;BME280;59638;52.126;5.434;2023-04-01T06:10:16;99514.88;;;9.18;100.00
71791;BME280;59638;52.126;5.434;2023-04-01T06:12:51;99512.06;;;9.19;100.00
71791;BME280;59638;52.126;5.434;2023-04-01T06:15:48;99521.63;;;9.20;100.00
71791;BME280;59638;52.126;5.434;2023-04-01T06:24:00;99526.72;;;9.22;100.00
71791;BME280;59638;52.126;5.434;2023-04-01T06:26:36;99526.72;;;9.22;100.00
71791;BME280;59638;52.126;5.434;2023-04-01T06:32:25;99539.72;;;9.23;100.00
71791;BME280;59638;52.126;5.434;2023-04-01T06:35:01;99548.28;;;9.25;100.00
71791;BME280;59638;52.126;5.434;2023-04-01T06:43:15;99557.66;;;9.28;100.00
71791;BME280;59638;52.126;5.434;2023-04-01T06:47:18;99562.28;;;9.34;100.00
71791;BME280;59638;52.126;5.434;2023-04-01T06:49:21;99570.19;;;9.34;100.00
71791;BME280;59638;52.126;5.434;2023-04-01T06:54:25;99577.28;;;9.34;100.00
71791;BME280;59638;52.126;5.434;2023-04-01T06:56:59;99583.38;;;9.34;100.00
71791;BME280;59638;52.126;5.434;2023-04-01T06:59:30;99584.19;;;9.35;100.00
71791;BME280;59638;52.126;5.434;2023-04-01T07:02:29;99593.25;;;9.40;100.00
71791;BME280;59638;52.126;5.434;2023-04-01T07:04:59;99595.88;;;9.40;100.00
71791;BME280;59638;52.126;5.434;2023-04-01T07:10:06;99600.34;;;9.40;100.00
71791;BME280;59638;52.126;5.434;2023-04-01T07:12:42;99607.41;;;9.39;100.00
71791;BME280;59638;52.126;5.434;2023-04-01T07:15:21;99607.09;;;9.42;100.00
71791;BME280;59638;52.126;5.434;2023-04-01T07:17:55;99616.31;;;9.46;100.00
71791;BME280;59638;52.126;5.434;2023-04-01T07:20:26;99621.59;;;9.46;100.00
71791;BME280;59638;52.126;5.434;2023-04-01T07:23:02;99630.81;;;9.50;100.00
71791;BME280;59638;52.126;5.434;2023-04-01T07:25:34;99626.88;;;9.54;100.00
71791;BME280;59638;52.126;5.434;2023-04-01T07:28:10;99627.53;;;9.57;100.00
71791;BME280;59638;52.126;5.434;2023-04-01T07:33:58;99642.03;;;9.61;100.00
71791;BME280;59638;52.126;5.434;2023-04-01T07:36:48;99652.25;;;9.64;100.00
71791;BME280;59638;52.126;5.434;2023-04-01T07:44:36;99654.06;;;9.63;100.00
71791;BME280;59638;52.126;5.434;2023-04-01T07:53:13;99667.03;;;9.57;100.00
71791;BME280;59638;52.126;5.434;2023-04-01T07:56:06;99675.63;;;9.59;100.00
71791;BME280;59638;52.126;5.434;2023-04-01T08:01:42;99688.47;;;9.62;100.00
71791;BME280;59638;52.126;5.434;2023-04-01T08:04:27;99690.13;;;9.63;100.00
71791;BME280;59638;52.126;5.434;2023-04-01T08:07:15;99692.91;;;9.61;100.00
71791;BME280;59638;52.126;5.434;2023-04-01T08:09:59;99692.75;;;9.63;100.00
71791;BME280;59638;52.126;5.434;2023-04-01T08:12:50;99701.34;;;9.65;100.00
71791;BME280;59638;52.126;5.434;2023-04-01T08:18:21;99711.09;;;9.72;100.00
71791;BME280;59638;52.126;5.434;2023-04-01T08:21:00;99707.63;;;9.72;100.00
71791;BME280;59638;52.126;5.434;2023-04-01T08:23:32;99710.59;;;9.77;100.00
71791;BME280;59638;52.126;5.434;2023-04-01T08:28:59;99726.22;;;9.70;100.00
71791;BME280;59638;52.126;5.434;2023-04-01T08:34:13;99741.38;;;9.68;100.00
71791;BME280;59638;52.126;5.434;2023-04-01T08:36:51;99746.16;;;9.73;100.00
71791;BME280;59638;52.126;5.434;2023-04-01T08:51:06;99757.19;;;9.76;100.00
71791;BME280;59638;52.126;5.434;2023-04-01T08:53:53;99767.63;;;9.86;100.00
71791;BME280;59638;52.126;5.434;2023-04-01T08:56:27;99772.56;;;9.89;100.00
71791;BME280;59638;52.126;5.434;2023-04-01T09:05:12;99781.06;;;10.17;100.00
71791;BME280;59638;52.126;5.434;2023-04-01T09:10:25;99782.34;;;10.05;100.00
71791;BME280;59638;52.126;5.434;2023-04-01T09:24:35;99797.03;;;10.16;100.00
71791;BME280;59638;52.126;5.434;2023-04-01T09:27:10;99800.28;;;10.01;100.00
71791;BME280;59638;52.126;5.434;2023-04-01T09:38:22;99818.13;;;10.07;100.00
71791;BME280;59638;52.126;5.434;2023-04-01T09:41:05;99824.16;;;10.34;100.00
71791;BME280;59638;52.126;5.434;2023-04-01T09:43:52;99832.44;;;10.55;100.00
71791;BME280;59638;52.126;5.434;2023-04-01T09:55:55;99839.09;;;11.25;100.00
71791;BME280;59638;52.126;5.434;2023-04-01T09:58:53;99838.75;;;10.95;100.00
71791;BME280;59638;52.126;5.434;2023-04-01T10:01:51;99841.06;;;11.06;100.00
71791;BME280;59638;52.126;5.434;2023-04-01T10:09:49;99842.84;;;12.18;100.00
71791;BME280;59638;52.126;5.434;2023-04-01T10:33:12;99870.19;;;11.94;100.00
71791;BME280;59638;52.126;5.434;2023-04-01T10:38:13;99871.41;;;11.67;100.00
71791;BME280;59638;52.126;5.434;2023-04-01T10:40:56;99878.38;;;11.52;100.00
71791;BME280;59638;52.126;5.434;2023-04-01T10:57:28;99889.38;;;12.44;100.00
71791;BME280;59638;52.126;5.434;2023-04-01T11:14:05;99896.97;;;12.00;100.00
71791;BME280;59638;52.126;5.434;2023-04-01T11:22:29;99926.63;;;11.30;100.00
71791;BME280;59638;52.126;5.434;2023-04-01T11:27:57;99925.75;;;11.21;100.00
71791;BME280;59638;52.126;5.434;2023-04-01T11:33:19;99927.41;;;11.14;100.00
71791;BME280;59638;52.126;5.434;2023-04-01T11:41:35;99949.41;;;11.63;100.00
71791;BME280;59638;52.126;5.434;2023-04-01T11:52:47;99966.56;;;11.27;100.00
71791;BME280;59638;52.126;5.434;2023-04-01T12:01:20;99971.03;;;11.42;100.00
71791;BME280;59638;52.126;5.434;2023-04-01T12:03:57;99976.16;;;11.52;100.00
71791;BME280;59638;52.126;5.434;2023-04-01T12:06:38;99982.56;;;11.33;100.00
71791;BME280;59638;52.126;5.434;2023-04-01T12:12:06;99986.88;;;11.34;100.00
71791;BME280;59638;52.126;5.434;2023-04-01T12:14:44;99987.22;;;11.48;100.00
71791;BME280;59638;52.126;5.434;2023-04-01T12:17:39;99991.84;;;11.62;100.00
71791;BME280;59638;52.126;5.434;2023-04-01T12:29:42;100006.03;;;11.36;100.00
71791;BME280;59638;52.126;5.434;2023-04-01T12:32:31;100012.28;;;11.35;100.00
71791;BME280;59638;52.126;5.434;2023-04-01T12:35:24;100017.09;;;11.48;100.00
71791;BME280;59638;52.126;5.434;2023-04-01T12:51:41;100034.31;;;12.25;100.00
71791;BME280;59638;52.126;5.434;2023-04-01T13:05:22;100049.53;;;11.99;100.00
71791;BME280;59638;52.126;5.434;2023-04-01T13:27:50;100077.88;;;11.32;100.00
71791;BME280;59638;52.126;5.434;2023-04-01T13:30:39;100091.72;;;11.26;100.00
71791;BME280;59638;52.126;5.434;2023-04-01T13:33:40;100092.00;;;11.14;100.00
71791;BME280;59638;52.126;5.434;2023-04-01T13:39:02;100088.31;;;10.99;100.00
71791;BME280;59638;52.126;5.434;2023-04-01T13:44:33;100094.94;;;11.03;100.00
71791;BME280;59638;52.126;5.434;2023-04-01T13:53:03;100099.25;;;11.04;100.00
71791;BME280;59638;52.126;5.434;2023-04-01T13:55:48;100105.31;;;10.97;100.00
71791;BME280;59638;52.126;5.434;2023-04-01T14:03:58;100122.00;;;10.71;100.00
71791;BME280;59638;52.126;5.434;2023-04-01T14:06:45;100127.09;;;10.65;100.00
71791;BME280;59638;52.126;5.434;2023-04-01T14:12:21;100145.19;;;10.59;100.00
71791;BME280;59638;52.126;5.434;2023-04-01T14:18:18;100153.84;;;10.26;100.00
71791;BME280;59638;52.126;5.434;2023-04-01T14:21:19;100158.03;;;10.19;100.00
71791;BME280;59638;52.126;5.434;2023-04-01T14:24:00;100159.41;;;10.23;100.00
71791;BME280;59638;52.126;5.434;2023-04-01T14:29:24;100169.25;;;10.21;100.00
71791;BME280;59638;52.126;5.434;2023-04-01T14:32:14;100180.56;;;10.13;100.00
71791;BME280;59638;52.126;5.434;2023-04-01T14:34:55;100180.03;;;10.09;100.00
71791;BME280;59638;52.126;5.434;2023-04-01T14:37:40;100177.72;;;10.06;100.00
71791;BME280;59638;52.126;5.434;2023-04-01T14:40:37;100186.06;;;10.02;100.00
71791;BME280;59638;52.126;5.434;2023-04-01T14:46:04;100202.34;;;9.97;100.00
71791;BME280;59638;52.126;5.434;2023-04-01T14:48:38;100199.31;;;9.92;100.00
71791;BME280;59638;52.126;5.434;2023-04-01T14:51:28;100207.91;;;9.94;100.00
71791;BME280;59638;52.126;5.434;2023-04-01T14:59:13;100228.56;;;9.99;100.00
71791;BME280;59638;52.126;5.434;2023-04-01T15:02:01;100235.66;;;9.98;100.00
71791;BME280;59638;52.126;5.434;2023-04-01T15:13:24;100255.25;;;10.14;100.00
71791;BME280;59638;52.126;5.434;2023-04-01T15:21:48;100270.75;;;10.17;100.00
71791;BME280;59638;52.126;5.434;2023-04-01T15:24:40;100270.47;;;10.20;100.00
71791;BME280;59638;52.126;5.434;2023-04-01T15:27:12;100275.75;;;10.20;100.00
71791;BME280;59638;52.126;5.434;2023-04-01T15:32:49;100290.34;;;10.24;100.00
71791;BME280;59638;52.126;5.434;2023-04-01T15:35:36;100284.59;;;10.28;100.00
71791;BME280;59638;52.126;5.434;2023-04-01T15:38:11;100290.69;;;10.29;100.00
71791;BME280;59638;52.126;5.434;2023-04-01T15:43:45;100301.28;;;10.19;100.00
71791;BME280;59638;52.126;5.434;2023-04-01T15:49:35;100330.50;;;10.08;100.00
71791;BME280;59638;52.126;5.434;2023-04-01T15:52:24;100333.88;;;10.00;100.00
71791;BME280;59638;52.126;5.434;2023-04-01T15:55:26;100340.56;;;9.95;100.00
71791;BME280;59638;52.126;5.434;2023-04-01T15:58:04;100339.06;;;9.92;100.00
71791;BME280;59638;52.126;5.434;2023-04-01T16:00:44;100351.41;;;9.92;100.00
71791;BME280;59638;52.126;5.434;2023-04-01T16:06:20;100352.84;;;9.76;100.00
71791;BME280;59638;52.126;5.434;2023-04-01T16:11:43;100367.81;;;9.76;100.00
71791;BME280;59638;52.126;5.434;2023-04-01T16:19:53;100389.78;;;9.57;100.00
71791;BME280;59638;52.126;5.434;2023-04-01T16:22:27;100389.94;;;9.56;100.00
71791;BME280;59638;52.126;5.434;2023-04-01T16:27:51;100393.44;;;9.46;100.00
71791;BME280;59638;52.126;5.434;2023-04-01T16:30:39;100410.06;;;9.47;100.00
71791;BME280;59638;52.126;5.434;2023-04-01T16:39:06;100416.19;;;9.28;100.00
71791;BME280;59638;52.126;5.434;2023-04-01T16:41:37;100430.31;;;9.27;100.00
71791;BME280;59638;52.126;5.434;2023-04-01T16:44:18;100436.72;;;9.24;100.00
71791;BME280;59638;52.126;5.434;2023-04-01T16:46:51;100437.66;;;9.23;100.00
71791;BME280;59638;52.126;5.434;2023-04-01T16:49:40;100446.00;;;9.19;100.00
71791;BME280;59638;52.126;5.434;2023-04-01T16:59:54;100468.00;;;9.08;100.00
71791;BME280;59638;52.126;5.434;2023-04-01T17:02:27;100481.31;;;9.07;100.00
71791;BME280;59638;52.126;5.434;2023-04-01T17:05:12;100483.53;;;9.02;100.00
71791;BME280;59638;52.126;5.434;2023-04-01T17:08:09;100489.31;;;8.95;100.00
71791;BME280;59638;52.126;5.434;2023-04-01T17:10:51;100504.69;;;8.90;100.00
71791;BME280;59638;52.126;5.434;2023-04-01T17:13:45;100509.56;;;8.85;100.00
71791;BME280;59638;52.126;5.434;2023-04-01T17:21:52;100531.69;;;8.83;100.00
71791;BME280;59638;52.126;5.434;2023-04-01T17:27:24;100543.56;;;8.77;100.00
71791;BME280;59638;52.126;5.434;2023-04-01T17:36:12;100564.91;;;8.74;100.00
71791;BME280;59638;52.126;5.434;2023-04-01T17:39:24;100563.25;;;8.73;100.00
71791;BME280;59638;52.126;5.434;2023-04-01T17:42:06;100577.38;;;8.72;100.00
71791;BME280;59638;52.126;5.434;2023-04-01T17:45:16;100580.94;;;8.71;100.00
71791;BME280;59638;52.126;5.434;2023-04-01T17:50:52;100600.63;;;8.67;100.00
71791;BME280;59638;52.126;5.434;2023-04-01T17:56:36;100614.16;;;8.62;100.00
71791;BME280;59638;52.126;5.434;2023-04-01T18:01:54;100625.78;;;8.60;100.00
71791;BME280;59638;52.126;5.434;2023-04-01T18:10:07;100653.69;;;8.51;100.00
71791;BME280;59638;52.126;5.434;2023-04-01T18:15:53;100652.16;;;8.49;100.00
71791;BME280;59638;52.126;5.434;2023-04-01T18:18:37;100667.25;;;8.47;100.00
71791;BME280;59638;52.126;5.434;2023-04-01T18:21:25;100670.84;;;8.46;100.00
71791;BME280;59638;52.126;5.434;2023-04-01T18:24:14;100686.84;;;8.42;100.00
71791;BME280;59638;52.126;5.434;2023-04-01T18:26:46;100688.78;;;8.40;100.00
71791;BME280;59638;52.126;5.434;2023-04-01T18:35:21;100710.53;;;8.31;100.00
71791;BME280;59638;52.126;5.434;2023-04-01T18:37:57;100723.69;;;8.31;100.00
71791;BME280;59638;52.126;5.434;2023-04-01T18:40:36;100729.09;;;8.30;100.00
71791;BME280;59638;52.126;5.434;2023-04-01T18:43:16;100733.66;;;8.28;100.00
71791;BME280;59638;52.126;5.434;2023-04-01T18:45:55;100740.69;;;8.27;100.00
71791;BME280;59638;52.126;5.434;2023-04-01T18:48:33;100745.22;;;8.25;100.00
71791;BME280;59638;52.126;5.434;2023-04-01T18:51:43;100749.56;;;8.26;100.00
71791;BME280;59638;52.126;5.434;2023-04-01T18:54:30;100756.84;;;8.23;100.00
71791;BME280;59638;52.126;5.434;2023-04-01T18:57:12;100770.81;;;8.23;100.00
71791;BME280;59638;52.126;5.434;2023-04-01T19:00:16;100773.59;;;8.22;100.00
71791;BME280;59638;52.126;5.434;2023-04-01T19:02:36;100778.00;;;8.21;100.00
71791;BME280;59638;52.126;5.434;2023-04-01T19:07:44;100788.75;;;8.18;100.00
71791;BME280;59638;52.126;5.434;2023-04-01T19:10:17;100788.75;;;8.18;100.00
71791;BME280;59638;52.126;5.434;2023-04-01T19:13:06;100791.66;;;8.15;100.00
71791;BME280;59638;52.126;5.434;2023-04-01T19:15:44;100797.13;;;8.12;100.00
71791;BME280;59638;52.126;5.434;2023-04-01T19:20:55;100812.81;;;8.13;100.00
71791;BME280;59638;52.126;5.434;2023-04-01T19:26:05;100824.38;;;8.11;100.00
71791;BME280;59638;52.126;5.434;2023-04-01T19:48:17;100879.63;;;7.88;100.00
71791;BME280;59638;52.126;5.434;2023-04-01T19:51:02;100875.31;;;7.87;100.00
71791;BME280;59638;52.126;5.434;2023-04-01T19:56:22;100893.72;;;7.87;100.00
71791;BME280;59638;52.126;5.434;2023-04-01T19:59:04;100902.78;;;7.83;100.00
71791;BME280;59638;52.126;5.434;2023-04-01T20:04:27;100914.22;;;7.71;100.00
71791;BME280;59638;52.126;5.434;2023-04-01T20:07:23;100928.91;;;7.62;100.00
71791;BME280;59638;52.126;5.434;2023-04-01T20:09:58;100928.31;;;7.59;100.00
71791;BME280;59638;52.126;5.434;2023-04-01T20:12:51;100936.44;;;7.56;100.00
71791;BME280;59638;52.126;5.434;2023-04-01T20:15:30;100944.78;;;7.50;100.00
71791;BME280;59638;52.126;5.434;2023-04-01T20:18:02;100949.53;;;7.45;100.00
71791;BME280;59638;52.126;5.434;2023-04-01T20:20:30;100948.81;;;7.43;100.00
71791;BME280;59638;52.126;5.434;2023-04-01T20:23:06;100959.06;;;7.46;100.00
71791;BME280;59638;52.126;5.434;2023-04-01T20:25:51;100968.03;;;7.43;100.00
71791;BME280;59638;52.126;5.434;2023-04-01T20:28:23;100978.66;;;7.42;100.00
71791;BME280;59638;52.126;5.434;2023-04-01T20:31:04;100981.16;;;7.43;100.00